Kezdőlap
METAR-TAF:

METAR-TAF

Repülőterek :

Medicine Lodge Airport

Medicine Lodge, Kansas, Amerikai Egyesült Államok

földrajzi szélesség: 37-17-02N, földrajzi hosszúság: 098-33-10W, magasság: 469 m

Jelenlegi meteorológiai megfigyelések

A jelentés 1 órával és 5 perccel ezelõtt készült, 11:56 UTC
Keleti szél 4 kt
Hőmérséklet 23°C
Páratartalom 78%
Légköri nyomás 1023 hPa

METAR: KP28 201156Z AUTO 10004KT 23/19 A3021 RMK AO1 SLP216 70059 T02280194 10244 20222

Idő: 08:01 (13:01 UTC)


TAF: hiányzik

Meteorológiai megfigyelések és előrejelzések több, mint 4000 repülőtéren (METAR és TAF jelentéseket).

A térképen piros és sárga pontok jelzik az elérhető meteorológiai állomásokat.

Mozgassa az egeret a pont fölött, hogy megjelenjen az állomás neve.

Azután kattintson az időjárási megfigyelések és előrejelzések megtekintéséhez.

A térkép megváltoztatása: kattintson a fekete keresztel jelölt zöld gombra ráközelítéshez, a vonallal jelölt zöld gombra távolításhoz, vagy a zöld nyilakra a szomszédos térképek eléréséhez.


METAR-TAF: